WetterOnline ( https://www.wetteronline.ch )

Wetter aktuell Rostock

Aktuelles Wetter: Rostock-Warnemünde (10m)

6-stündlich | Neueste Meldungen
Ortszeit Temperatur Wetter
So, 25.02. 1:00 4.3° C leicht bewölkt
Sa, 24.02. 19:00 8.0° C bewölkt
Sa, 24.02. 13:00 8.5° C wolkig
Sa, 24.02. 7:00 2.7° C wolkenlos
Sa, 24.02. 1:00 4.8° C bewölkt
Fr, 23.02. 19:00 8.2° C bedeckt
Fr, 23.02. 13:00 9.0° C bewölkt
Fr, 23.02. 7:00 6.3° C leicht bewölkt
Ortszeit Temperatur Wetter
So, 25.02. 6:30 3.4° C bedeckt
So, 25.02. 6:20 3.4° C bedeckt
So, 25.02. 6:10 3.4° C bedeckt
So, 25.02. 6:00 3.6° C bedeckt
So, 25.02. 5:50 3.6° C bedeckt
So, 25.02. 5:40 3.4° C bedeckt
So, 25.02. 5:30 3.4° C bewölkt
So, 25.02. 5:00 3.5° C wolkig
So, 25.02. 4:30 3.6° C leicht bewölkt
So, 25.02. 4:00 3.7° C bewölkt
So, 25.02. 3:30 3.8° C wolkig
Ortszeit Relative Feuchte Sichtweite
So, 25.02. 1:00 82% >70 km
Sa, 24.02. 19:00 70% 55 km
Sa, 24.02. 13:00 63% 60 km
Sa, 24.02. 7:00 82% 45 km
Sa, 24.02. 1:00 75% 55 km
Fr, 23.02. 19:00 61% 65 km
Fr, 23.02. 13:00 53% >70 km
Fr, 23.02. 7:00 70% 60 km
Ortszeit Relative Feuchte Sichtweite
So, 25.02. 6:30 79% 65 km
So, 25.02. 6:20 79% -
So, 25.02. 6:10 79% -
So, 25.02. 6:00 79% 65 km
So, 25.02. 5:50 79% -
So, 25.02. 5:40 80% -
So, 25.02. 5:30 80% >70 km
So, 25.02. 5:00 80% 65 km
So, 25.02. 4:30 79% >70 km
So, 25.02. 4:00 80% >70 km
So, 25.02. 3:30 81% >70 km
Ortszeit Niederschlagsmenge Niederschlagsart
So, 25.02. 1:00 0.6 l/m2 in 6 Std. Regen
Sa, 24.02. 19:00 0.0 l/m2 in 12 Std. -
Sa, 24.02. 13:00 0.0 l/m2 in 6 Std. -
Sa, 24.02. 7:00 0.0 l/m2 in 12 Std. -
Sa, 24.02. 1:00 0.0 l/m2 in 6 Std. -
Fr, 23.02. 19:00 0.0 l/m2 in 12 Std. -
Fr, 23.02. 13:00 0.0 l/m2 in 6 Std. -
Fr, 23.02. 7:00 2 l/m2 in 12 Std. Regen
Ortszeit Niederschlagsmenge Niederschlagsart
So, 25.02. 6:30 0.0 l/m2 in 30 Min -
So, 25.02. 6:20 keine Meldung -
So, 25.02. 6:10 keine Meldung -
So, 25.02. 6:00 0.0 l/m2 in 1 Std. -
So, 25.02. 5:50 keine Meldung -
So, 25.02. 5:40 keine Meldung -
So, 25.02. 5:30 0.0 l/m2 in 30 Min -
So, 25.02. 5:00 0.0 l/m2 in 1 Std. -
So, 25.02. 4:30 0.0 l/m2 in 30 Min -
So, 25.02. 4:00 0.0 l/m2 in 1 Std. -
So, 25.02. 3:30 0.0 l/m2 in 30 Min -
Ortszeit Stärke Spitze Richtung
km/h Bft. km/h Grad Sektor
So, 25.02. 1:00 11 2 43 180° S
Sa, 24.02. 19:00 11 2 36 160° S
Sa, 24.02. 13:00 14 3 29 180° S
Sa, 24.02. 7:00 7 2 22 160° S
Sa, 24.02. 1:00 9 2 35 160° S
Fr, 23.02. 19:00 14 3 47 160° S
Fr, 23.02. 13:00 32 5 54 210° SW
Fr, 23.02. 7:00 25 4 76 220° SW
Ortszeit Stärke Spitze Richtung
km/h Bft. km/h Grad Sektor
So, 25.02. 6:30 7 2 18 160° S
So, 25.02. 6:20 7 2 - 160° S
So, 25.02. 6:10 9 2 - 160° S
So, 25.02. 6:00 11 2 22 160° S
So, 25.02. 5:50 11 2 - 160° S
So, 25.02. 5:40 9 2 - 170° S
So, 25.02. 5:30 11 2 22 160° S
So, 25.02. 5:00 9 2 20 160° S
So, 25.02. 4:30 9 2 20 170° S
So, 25.02. 4:00 9 2 22 170° S
So, 25.02. 3:30 9 2 22 170° S
Ortszeit Untergrenze Bedeckung Gattung
total tief tief mittel hoch
So, 25.02. 1:00 2100 m 3/8 3/8 - - -
Sa, 24.02. 19:00 1800 m 8/8 7/8 - - -
Sa, 24.02. 13:00 4500 m 5/8 5/8 - - -
Sa, 24.02. 7:00 - 0/8 0/8 - - -
Sa, 24.02. 1:00 2100 m 7/8 7/8 - - -
Fr, 23.02. 19:00 2100 m 8/8 8/8 - - -
Fr, 23.02. 13:00 1260 m 7/8 7/8 - - -
Fr, 23.02. 7:00 900 m 4/8 3/8 - - -
Ortszeit Bedeckungsgrad in Achtel und Wolkenuntergrenze
So, 25.02. 6:30 8(3900m) 8(5700m)
So, 25.02. 6:20 8(3900m) 8(5700m)
So, 25.02. 6:10 8
So, 25.02. 6:00 5(4500m) 8(5400m) 8(6900m)
So, 25.02. 5:50 5(4500m) 8(5400m) 8(6900m)
So, 25.02. 5:40 8
So, 25.02. 5:30 7(5100m) 8(7200m)
So, 25.02. 5:00 2(5400m) 8(7500m)
So, 25.02. 4:30 5(7800m)
So, 25.02. 4:00 4(5400m) 6(6300m) 7(6900m)
So, 25.02. 3:30 5(5700m) 6(7200m)
Ortszeit Luftdruck NN (hPa) Tendenz (hPa in 3 Std.)
So, 25.02. 1:00 1005 + 0,4
Sa, 24.02. 19:00 1002 + 1,4
Sa, 24.02. 13:00 1000 + 0,5
Sa, 24.02. 7:00 999 + 0,6
Sa, 24.02. 1:00 998 + 0,9
Fr, 23.02. 19:00 996 + 1,3
Fr, 23.02. 13:00 993 + 2,6
Fr, 23.02. 7:00 987 + 4,9
Ortszeit Luftdruck NN (hPa) Tendenz (hPa in 3 Std.)
So, 25.02. 6:30 1005 - 0,1
So, 25.02. 6:20 1005 keine Meldung
So, 25.02. 6:10 1005 keine Meldung
So, 25.02. 6:00 1005 0,0
So, 25.02. 5:50 1005 keine Meldung
So, 25.02. 5:40 1005 keine Meldung
So, 25.02. 5:30 1005 + 0,1
So, 25.02. 5:00 1005 0,0
So, 25.02. 4:30 1005 + 0,3
So, 25.02. 4:00 1005 + 0,5
So, 25.02. 3:30 1005 + 0,9
Ortszeit Schneehöhe (cm)
So, 25.02. 1:00 0
Sa, 24.02. 19:00 0
Sa, 24.02. 13:00 0
Sa, 24.02. 7:00 0
Sa, 24.02. 1:00 0
Fr, 23.02. 19:00 0
Fr, 23.02. 13:00 0
Fr, 23.02. 7:00 0
Ortszeit Schneehöhe (cm)
So, 25.02. 6:30 0
So, 25.02. 6:20 0
So, 25.02. 6:10 -
So, 25.02. 6:00 0
So, 25.02. 5:50 0
So, 25.02. 5:40 -
So, 25.02. 5:30 0
So, 25.02. 5:00 0
So, 25.02. 4:30 0
So, 25.02. 4:00 0
So, 25.02. 3:30 0
Link zu dieser Seite / Seite empfehlen

Das Wetter in ...